createdAt,value
2019-02-16T00:00:47.195Z,5.00
2019-02-16T00:03:16.642Z,5.00
2019-02-16T00:05:46.078Z,4.90
2019-02-16T00:08:15.521Z,4.90
2019-02-16T00:10:44.953Z,4.80
2019-02-16T00:13:14.397Z,4.80
2019-02-16T00:15:43.827Z,4.70
2019-02-16T00:18:13.264Z,4.60
2019-02-16T00:20:42.695Z,4.60
2019-02-16T00:23:12.133Z,4.60
2019-02-16T00:25:41.564Z,4.50
2019-02-16T00:28:11.001Z,4.50
2019-02-16T00:30:40.418Z,4.60
2019-02-16T00:33:09.868Z,4.70
2019-02-16T00:35:39.290Z,4.60
2019-02-16T00:38:08.715Z,4.70
2019-02-16T00:40:38.157Z,4.70
2019-02-16T00:43:07.577Z,4.80
2019-02-16T00:45:37.013Z,4.80
2019-02-16T00:48:06.434Z,4.90
2019-02-16T00:50:35.880Z,4.80
2019-02-16T00:53:05.309Z,4.90
2019-02-16T00:55:34.764Z,4.90
2019-02-16T00:58:04.205Z,4.90
2019-02-16T01:00:33.626Z,5.00
2019-02-16T01:03:03.092Z,4.90
2019-02-16T01:05:32.504Z,4.90
2019-02-16T01:08:01.942Z,4.90
2019-02-16T01:10:31.378Z,4.80
2019-02-16T01:13:00.808Z,4.80
2019-02-16T01:15:30.265Z,4.90
2019-02-16T01:17:59.685Z,4.90
2019-02-16T01:20:29.124Z,4.90
2019-02-16T01:22:58.544Z,4.80
2019-02-16T01:25:27.978Z,4.90
2019-02-16T01:27:57.399Z,4.80
2019-02-16T01:30:26.834Z,4.90
2019-02-16T01:32:56.261Z,4.80
2019-02-16T01:35:25.712Z,4.70
2019-02-16T01:37:55.126Z,4.70
2019-02-16T01:40:24.594Z,4.70
2019-02-16T01:42:54.020Z,4.70
2019-02-16T01:45:23.479Z,4.70
2019-02-16T01:47:52.898Z,4.70
2019-02-16T01:50:22.337Z,4.70
2019-02-16T01:52:51.768Z,4.70
2019-02-16T01:55:21.198Z,4.70
2019-02-16T01:57:50.615Z,4.70
2019-02-16T02:00:20.064Z,4.70
2019-02-16T02:02:49.488Z,4.60
2019-02-16T02:05:18.924Z,4.60
2019-02-16T02:07:48.350Z,4.60
2019-02-16T02:10:17.791Z,4.50
2019-02-16T02:12:47.205Z,4.50
2019-02-16T02:15:16.651Z,4.40
2019-02-16T02:17:46.075Z,4.40
2019-02-16T02:20:15.514Z,4.40
2019-02-16T02:22:44.936Z,4.40
2019-02-16T02:25:14.373Z,4.30
2019-02-16T02:27:43.798Z,4.30
2019-02-16T02:30:13.233Z,4.20
2019-02-16T02:32:42.651Z,4.10
2019-02-16T02:35:12.093Z,4.10
2019-02-16T02:37:41.525Z,4.10
2019-02-16T02:40:11.033Z,4.10
2019-02-16T02:42:40.462Z,4.10
2019-02-16T02:45:11.453Z,4.20
2019-02-16T02:47:40.902Z,4.20
2019-02-16T02:50:10.394Z,4.20
2019-02-16T02:52:39.806Z,4.20
2019-02-16T02:55:09.332Z,4.20
2019-02-16T02:57:38.760Z,4.20
2019-02-16T03:00:10.637Z,4.20
2019-02-16T03:02:40.053Z,4.30
2019-02-16T03:05:10.928Z,4.20
2019-02-16T03:07:40.364Z,4.20
2019-02-16T03:10:09.875Z,4.10
2019-02-16T03:12:39.304Z,4.10
2019-02-16T03:15:08.930Z,4.00
2019-02-16T03:17:38.340Z,4.00
2019-02-16T03:20:07.941Z,4.00
2019-02-16T03:23:11.766Z,3.90
2019-02-16T03:25:44.119Z,3.90
2019-02-16T03:28:35.664Z,3.90
2019-02-16T03:31:24.641Z,3.90
2019-02-16T03:34:16.188Z,3.90
2019-02-16T03:37:08.032Z,3.90
2019-02-16T03:39:40.679Z,3.90
2019-02-16T03:42:10.115Z,3.70
2019-02-16T03:44:39.545Z,3.80
2019-02-16T03:47:09.004Z,3.70
2019-02-16T03:49:38.426Z,3.70
2019-02-16T03:52:13.902Z,3.70
2019-02-16T03:54:39.012Z,3.70
2019-02-16T03:57:08.458Z,3.70
2019-02-16T03:59:37.879Z,3.70
2019-02-16T04:02:07.322Z,3.80
2019-02-16T04:04:36.741Z,3.70
2019-02-16T04:07:06.175Z,3.80
2019-02-16T04:09:35.597Z,3.80
2019-02-16T04:12:05.018Z,3.80
2019-02-16T04:14:34.460Z,3.80
2019-02-16T04:17:03.902Z,3.80
2019-02-16T04:19:33.329Z,3.70
2019-02-16T04:22:02.770Z,3.70
2019-02-16T04:24:32.194Z,3.60
2019-02-16T04:27:01.645Z,3.60
2019-02-16T04:29:31.066Z,3.60
2019-02-16T04:32:00.514Z,3.60
2019-02-16T04:34:29.941Z,3.60
2019-02-16T04:36:59.370Z,3.60
2019-02-16T04:39:28.811Z,3.60
2019-02-16T04:41:58.267Z,3.50
2019-02-16T04:44:27.690Z,3.60
2019-02-16T04:46:57.139Z,3.60
2019-02-16T04:49:26.555Z,3.60
2019-02-16T04:51:56.003Z,3.70
2019-02-16T04:54:25.419Z,3.70
2019-02-16T04:56:54.875Z,3.70
2019-02-16T04:59:24.302Z,3.70
2019-02-16T05:01:53.740Z,3.70
2019-02-16T05:04:23.169Z,3.60
2019-02-16T05:06:52.606Z,3.70
2019-02-16T05:09:22.039Z,3.70
2019-02-16T05:11:51.478Z,3.70
2019-02-16T05:14:20.899Z,3.70
2019-02-16T05:16:50.355Z,3.70
2019-02-16T05:19:19.783Z,3.70
2019-02-16T05:21:49.214Z,3.70
2019-02-16T05:24:18.643Z,3.70
2019-02-16T05:26:48.068Z,3.60
2019-02-16T05:29:17.512Z,3.60
2019-02-16T05:31:47.291Z,3.60
2019-02-16T05:34:16.750Z,3.50
2019-02-16T05:36:46.196Z,3.50
2019-02-16T05:39:15.624Z,3.50
2019-02-16T05:41:45.048Z,3.40
2019-02-16T05:44:14.486Z,3.40
2019-02-16T05:46:43.910Z,3.40
2019-02-16T05:49:13.348Z,3.40
2019-02-16T05:51:42.791Z,3.40
2019-02-16T05:54:12.217Z,3.40
2019-02-16T05:56:41.654Z,3.40
2019-02-16T05:59:11.094Z,3.40
2019-02-16T06:01:40.521Z,3.40
2019-02-16T06:04:09.976Z,3.40
2019-02-16T06:06:39.402Z,3.40
2019-02-16T06:09:08.862Z,3.40
2019-02-16T06:11:38.292Z,3.40
2019-02-16T06:14:07.732Z,3.30
2019-02-16T06:16:37.204Z,3.20
2019-02-16T06:19:06.634Z,3.20
2019-02-16T06:21:36.053Z,3.10
2019-02-16T06:24:05.498Z,3.10
2019-02-16T06:26:34.927Z,3.20
2019-02-16T06:29:04.368Z,3.30
2019-02-16T06:31:34.688Z,3.20
2019-02-16T06:34:04.136Z,3.20
2019-02-16T06:36:35.601Z,3.30
2019-02-16T06:39:05.855Z,3.30
2019-02-16T06:41:35.269Z,3.40
2019-02-16T06:44:04.708Z,3.40
2019-02-16T06:46:34.135Z,3.50
2019-02-16T06:49:03.565Z,3.50
2019-02-16T06:51:32.984Z,3.60
2019-02-16T06:54:02.454Z,3.60
2019-02-16T06:56:35.922Z,3.60
2019-02-16T06:59:05.369Z,3.70
2019-02-16T07:01:34.791Z,3.70
2019-02-16T07:04:04.255Z,3.80
2019-02-16T07:06:33.695Z,3.80
2019-02-16T07:09:03.714Z,3.80
2019-02-16T07:11:33.149Z,3.90
2019-02-16T07:14:02.593Z,3.90
2019-02-16T07:16:33.647Z,4.00
2019-02-16T07:19:04.745Z,4.00
2019-02-16T07:21:34.186Z,4.00
2019-02-16T07:24:03.646Z,4.10
2019-02-16T07:26:33.074Z,4.20
2019-02-16T07:29:02.508Z,4.20
2019-02-16T07:31:31.951Z,4.30
2019-02-16T07:34:01.405Z,4.30
2019-02-16T07:36:30.829Z,4.30
2019-02-16T07:39:00.295Z,4.40
2019-02-16T07:41:29.730Z,4.60
2019-02-16T07:43:58.952Z,4.80
2019-02-16T07:46:41.708Z,5.00
2019-02-16T07:49:18.513Z,5.20
2019-02-16T07:51:51.990Z,5.30
2019-02-16T07:54:38.961Z,5.80
2019-02-16T07:57:12.752Z,6.50
2019-02-16T07:59:50.392Z,7.20
2019-02-16T08:02:21.455Z,7.80
2019-02-16T08:04:58.239Z,8.50
2019-02-16T08:07:32.005Z,9.20
2019-02-16T08:10:03.092Z,9.80
2019-02-16T08:12:42.821Z,10.30
2019-02-16T08:15:25.660Z,10.60
2019-02-16T08:18:12.409Z,11.00
2019-02-16T08:20:49.529Z,11.50
2019-02-16T08:23:40.314Z,12.20
2019-02-16T08:26:25.826Z,12.50
2019-02-16T08:28:59.587Z,12.90
2019-02-16T08:31:36.101Z,13.10
2019-02-16T08:34:07.189Z,13.60
2019-02-16T08:36:53.810Z,13.70
2019-02-16T08:39:40.968Z,14.00
2019-02-16T08:42:28.189Z,14.20
2019-02-16T08:45:05.058Z,14.40
2019-02-16T08:47:36.136Z,14.80
2019-02-16T08:50:10.659Z,15.00
2019-02-16T08:52:50.379Z,15.30
2019-02-16T08:55:33.066Z,15.60
2019-02-16T08:58:15.912Z,15.90
2019-02-16T09:00:49.906Z,16.20
2019-02-16T09:03:26.920Z,16.30
2019-02-16T09:05:58.103Z,16.30
2019-02-16T09:08:40.926Z,16.20
2019-02-16T09:11:12.043Z,15.90
2019-02-16T09:13:55.044Z,15.50
2019-02-16T09:16:26.204Z,15.40
2019-02-16T09:19:05.668Z,15.50
2019-02-16T09:21:36.743Z,15.60
2019-02-16T09:24:16.496Z,15.80
2019-02-16T09:26:45.711Z,16.00
2019-02-16T09:29:14.916Z,16.10
2019-02-16T09:31:54.782Z,16.30
2019-02-16T09:34:25.970Z,16.60
2019-02-16T09:36:57.593Z,17.00
2019-02-16T09:39:44.537Z,17.20
2019-02-16T09:42:15.616Z,17.50
2019-02-16T09:45:04.210Z,17.60
2019-02-16T09:47:44.155Z,17.80
2019-02-16T09:50:20.738Z,18.20
2019-02-16T09:52:52.925Z,18.60
2019-02-16T09:55:24.005Z,18.70
2019-02-16T09:57:55.083Z,19.10
2019-02-16T10:00:42.058Z,19.20
2019-02-16T10:03:14.226Z,19.40
2019-02-16T10:05:54.147Z,19.30
2019-02-16T10:08:23.349Z,19.40
2019-02-16T10:10:54.444Z,19.60
2019-02-16T10:13:25.504Z,19.90
2019-02-16T10:15:54.739Z,20.00
2019-02-16T10:18:31.564Z,20.20
2019-02-16T10:21:02.740Z,20.30
2019-02-16T10:23:49.690Z,20.40
2019-02-16T10:26:18.912Z,20.50
2019-02-16T10:28:49.985Z,20.60
2019-02-16T10:31:21.072Z,20.80
2019-02-16T10:33:58.018Z,21.00
2019-02-16T10:36:34.893Z,21.00
2019-02-16T10:39:22.408Z,20.90
2019-02-16T10:42:11.126Z,21.10
2019-02-16T10:44:42.541Z,21.10
2019-02-16T10:47:19.255Z,21.40
2019-02-16T10:49:50.335Z,21.60
2019-02-16T10:52:30.608Z,21.50
2019-02-16T10:55:13.373Z,21.30
2019-02-16T10:57:50.153Z,21.10
2019-02-16T11:00:21.244Z,20.90
2019-02-16T11:02:52.319Z,20.80
2019-02-16T11:05:35.180Z,20.70
2019-02-16T11:08:14.894Z,20.80
2019-02-16T11:10:51.754Z,21.10
2019-02-16T11:13:28.688Z,21.30
2019-02-16T11:16:05.270Z,21.60
2019-02-16T11:18:52.148Z,22.00
2019-02-16T11:21:31.961Z,22.20
2019-02-16T11:24:05.938Z,22.40
2019-02-16T11:26:37.655Z,22.30
2019-02-16T11:29:11.421Z,22.10
2019-02-16T11:31:43.613Z,22.10
2019-02-16T11:34:32.477Z,22.10
2019-02-16T11:37:15.337Z,22.40
2019-02-16T11:39:52.370Z,22.60
2019-02-16T11:42:23.471Z,22.90
2019-02-16T11:45:00.554Z,23.00
2019-02-16T11:47:31.628Z,22.90
2019-02-16T11:50:05.420Z,22.90
2019-02-16T11:52:45.184Z,23.00
2019-02-16T11:55:22.213Z,23.10
2019-02-16T11:57:53.306Z,23.30
2019-02-16T12:00:22.516Z,23.50
2019-02-16T12:02:57.848Z,23.50
2019-02-16T12:05:28.932Z,23.30
2019-02-16T12:08:02.439Z,23.00
2019-02-16T12:10:33.513Z,22.90
2019-02-16T12:13:20.612Z,22.80
2019-02-16T12:15:54.375Z,22.70
2019-02-16T12:18:30.906Z,22.30
2019-02-16T12:21:04.686Z,21.90
2019-02-16T12:23:35.808Z,21.70
2019-02-16T12:26:04.967Z,21.60
2019-02-16T12:28:41.976Z,21.50
2019-02-16T12:31:13.151Z,21.40
2019-02-16T12:33:52.603Z,21.10
2019-02-16T12:36:26.146Z,20.90
2019-02-16T12:39:12.226Z,20.90
2019-02-16T12:41:43.323Z,20.80
2019-02-16T12:44:17.068Z,20.70
2019-02-16T12:46:48.170Z,20.70
2019-02-16T12:49:19.240Z,20.80
2019-02-16T12:52:07.863Z,20.90
2019-02-16T12:54:47.450Z,21.00
2019-02-16T12:57:30.449Z,21.00
2019-02-16T13:00:01.601Z,21.10
2019-02-16T13:02:48.925Z,21.10
2019-02-16T13:05:31.803Z,21.20
2019-02-16T13:08:14.708Z,21.30
2019-02-16T13:10:48.164Z,21.20
2019-02-16T13:13:19.270Z,21.30
2019-02-16T13:15:50.347Z,21.20
2019-02-16T13:18:33.196Z,21.20
2019-02-16T13:21:13.007Z,21.10
2019-02-16T13:23:46.747Z,21.10
2019-02-16T13:26:32.886Z,21.10
2019-02-16T13:29:18.817Z,20.90
2019-02-16T13:31:52.559Z,20.60
2019-02-16T13:34:21.756Z,20.70
2019-02-16T13:37:08.448Z,20.70
2019-02-16T13:39:45.466Z,20.90
2019-02-16T13:42:22.283Z,21.20
2019-02-16T13:44:53.348Z,21.40
2019-02-16T13:47:26.838Z,21.50
2019-02-16T13:50:00.661Z,21.60
2019-02-16T13:52:34.443Z,21.60
2019-02-16T13:55:07.921Z,21.60
2019-02-16T13:57:44.919Z,21.60
2019-02-16T14:00:24.760Z,21.50
2019-02-16T14:02:55.886Z,21.20
2019-02-16T14:05:42.759Z,21.30
2019-02-16T14:08:22.613Z,21.50
2019-02-16T14:10:53.701Z,21.40
2019-02-16T14:13:30.497Z,21.20
2019-02-16T14:16:01.564Z,21.10
2019-02-16T14:18:31.024Z,21.00
2019-02-16T14:21:00.481Z,21.00
2019-02-16T14:23:29.939Z,20.90
2019-02-16T14:25:59.363Z,21.00
2019-02-16T14:28:28.819Z,21.00
2019-02-16T14:30:58.268Z,21.00
2019-02-16T14:33:28.563Z,21.00
2019-02-16T14:35:58.077Z,20.80
2019-02-16T14:38:29.190Z,20.80
2019-02-16T14:40:58.650Z,20.80
2019-02-16T14:43:28.200Z,20.80
2019-02-16T14:45:57.636Z,20.70
2019-02-16T14:48:27.106Z,20.70
2019-02-16T14:50:56.640Z,20.50
2019-02-16T14:53:26.071Z,20.40
2019-02-16T14:55:55.507Z,20.30
2019-02-16T14:58:24.968Z,20.10
2019-02-16T15:00:54.407Z,20.00
2019-02-16T15:03:23.859Z,19.90
2019-02-16T15:05:53.291Z,19.70
2019-02-16T15:08:22.753Z,19.50
2019-02-16T15:10:52.182Z,19.40
2019-02-16T15:13:21.651Z,19.10
2019-02-16T15:15:51.121Z,18.80
2019-02-16T15:18:20.575Z,18.50
2019-02-16T15:20:50.003Z,18.20
2019-02-16T15:23:19.471Z,17.90
2019-02-16T15:25:48.901Z,17.60
2019-02-16T15:28:18.449Z,17.30
2019-02-16T15:31:07.221Z,16.90
2019-02-16T15:33:36.664Z,16.70
2019-02-16T15:36:06.128Z,16.40
2019-02-16T15:38:35.617Z,16.20
2019-02-16T15:41:05.079Z,15.90
2019-02-16T15:43:34.539Z,15.80
2019-02-16T15:46:03.981Z,15.70
2019-02-16T15:48:33.453Z,15.50
2019-02-16T15:51:02.902Z,15.40
2019-02-16T15:53:32.358Z,15.40
2019-02-16T15:56:10.058Z,15.20
2019-02-16T15:58:33.151Z,15.10
2019-02-16T16:01:02.578Z,15.00
2019-02-16T16:03:32.088Z,14.90
2019-02-16T16:06:01.589Z,14.80
2019-02-16T16:08:50.317Z,14.80
2019-02-16T16:11:27.488Z,14.70
2019-02-16T16:14:01.603Z,14.60
2019-02-16T16:16:35.445Z,14.50
2019-02-16T16:19:24.051Z,14.40
2019-02-16T16:22:04.110Z,14.30
2019-02-16T16:24:38.101Z,14.30
2019-02-16T16:27:14.869Z,14.20
2019-02-16T16:29:51.439Z,14.10
2019-02-16T16:32:28.264Z,14.00
2019-02-16T16:35:17.217Z,14.00
2019-02-16T16:37:59.066Z,13.90
2019-02-16T16:40:38.657Z,13.80
2019-02-16T16:43:12.125Z,13.60
2019-02-16T16:46:01.229Z,13.60
2019-02-16T16:48:35.371Z,13.50
2019-02-16T16:51:22.500Z,13.40
2019-02-16T16:53:54.124Z,13.30
2019-02-16T16:56:28.959Z,13.20
2019-02-16T16:59:05.984Z,13.00
2019-02-16T17:01:51.886Z,12.90
2019-02-16T17:04:25.954Z,12.90
2019-02-16T17:06:57.594Z,12.80
2019-02-16T17:09:40.119Z,12.70
2019-02-16T17:12:19.961Z,12.60
2019-02-16T17:14:51.020Z,12.50
2019-02-16T17:17:22.102Z,12.40
2019-02-16T17:19:51.380Z,12.30
2019-02-16T17:22:29.631Z,12.30
2019-02-16T17:25:01.616Z,12.20
2019-02-16T17:27:32.683Z,12.10
2019-02-16T17:30:03.781Z,12.00
2019-02-16T17:32:46.409Z,11.90
2019-02-16T17:35:22.937Z,11.80
2019-02-16T17:38:02.652Z,11.70
2019-02-16T17:40:37.565Z,11.70
2019-02-16T17:43:11.338Z,11.60
2019-02-16T17:45:48.113Z,11.60
2019-02-16T17:48:24.846Z,11.50
2019-02-16T17:50:55.942Z,11.40
2019-02-16T17:53:25.137Z,11.30
2019-02-16T17:55:56.246Z,11.20
2019-02-16T17:58:30.202Z,11.10
2019-02-16T18:01:01.305Z,11.10
2019-02-16T18:03:38.457Z,11.10
2019-02-16T18:06:18.707Z,11.00
2019-02-16T18:09:05.609Z,11.00
2019-02-16T18:11:52.635Z,11.00
2019-02-16T18:14:41.557Z,11.00
2019-02-16T18:17:21.304Z,11.00
2019-02-16T18:19:50.560Z,11.10
2019-02-16T18:22:19.769Z,11.10
2019-02-16T18:25:06.749Z,11.10
2019-02-16T18:27:37.834Z,11.00
2019-02-16T18:30:21.371Z,11.00
2019-02-16T18:33:04.517Z,11.10
2019-02-16T18:35:38.712Z,11.00
2019-02-16T18:38:24.544Z,10.90
2019-02-16T18:41:04.184Z,10.90
2019-02-16T18:43:47.098Z,10.90
2019-02-16T18:46:21.327Z,10.70
2019-02-16T18:49:10.022Z,10.70
2019-02-16T18:51:43.561Z,10.60
2019-02-16T18:54:21.507Z,10.60
2019-02-16T18:57:06.422Z,10.50
2019-02-16T18:59:46.679Z,10.50
2019-02-16T19:02:23.499Z,10.40
2019-02-16T19:05:09.388Z,10.20
2019-02-16T19:07:48.878Z,10.10
2019-02-16T19:10:25.623Z,10.10
2019-02-16T19:12:59.094Z,10.10
2019-02-16T19:15:28.409Z,10.00
2019-02-16T19:18:01.888Z,10.00
2019-02-16T19:20:33.040Z,9.90
2019-02-16T19:23:04.111Z,9.80
2019-02-16T19:25:35.198Z,9.80
2019-02-16T19:28:06.275Z,9.70
2019-02-16T19:30:42.855Z,9.70
2019-02-16T19:33:25.636Z,9.60
2019-02-16T19:36:06.672Z,9.60
2019-02-16T19:38:40.209Z,9.60
2019-02-16T19:41:20.079Z,9.50
2019-02-16T19:43:51.148Z,9.40
2019-02-16T19:46:25.184Z,9.40
2019-02-16T19:48:54.378Z,9.40
2019-02-16T19:51:31.423Z,9.30
2019-02-16T19:54:03.312Z,9.30
2019-02-16T19:56:37.128Z,9.20
2019-02-16T19:59:08.985Z,9.10
2019-02-16T20:01:45.767Z,9.00
2019-02-16T20:04:19.224Z,9.00
2019-02-16T20:06:55.999Z,8.90
2019-02-16T20:09:29.761Z,8.90
2019-02-16T20:12:01.704Z,8.80
2019-02-16T20:14:50.998Z,8.70
2019-02-16T20:17:24.497Z,8.70
2019-02-16T20:20:01.226Z,8.60
2019-02-16T20:22:44.098Z,8.60
2019-02-16T20:25:15.159Z,8.40
2019-02-16T20:27:48.931Z,8.30
2019-02-16T20:30:35.891Z,8.20
2019-02-16T20:33:15.958Z,8.20
2019-02-16T20:35:47.032Z,8.00
2019-02-16T20:38:23.859Z,8.00
2019-02-16T20:40:57.558Z,8.00
2019-02-16T20:43:40.793Z,8.00
2019-02-16T20:46:14.821Z,8.00
2019-02-16T20:48:54.388Z,8.00
2019-02-16T20:51:40.295Z,8.00
2019-02-16T20:54:26.894Z,8.10
2019-02-16T20:57:12.865Z,8.00
2019-02-16T20:59:43.927Z,8.10
2019-02-16T21:02:24.016Z,8.10
2019-02-16T21:04:56.141Z,8.00
2019-02-16T21:07:25.353Z,8.00
2019-02-16T21:10:11.950Z,8.00
2019-02-16T21:12:45.738Z,7.90
2019-02-16T21:15:31.323Z,7.90
2019-02-16T21:18:20.639Z,8.10
2019-02-16T21:21:07.518Z,8.00
2019-02-16T21:23:41.491Z,7.90
2019-02-16T21:26:18.546Z,7.70
2019-02-16T21:28:49.605Z,7.60
2019-02-16T21:31:20.677Z,7.40
2019-02-16T21:33:54.430Z,7.30
2019-02-16T21:36:30.071Z,7.20
2019-02-16T21:39:12.469Z,7.10
2019-02-16T21:41:43.535Z,7.00
2019-02-16T21:44:14.660Z,7.00
2019-02-16T21:46:54.254Z,7.00
2019-02-16T21:49:24.866Z,6.90
2019-02-16T21:52:07.850Z,6.90
2019-02-16T21:54:55.009Z,6.80
2019-02-16T21:57:26.111Z,6.80
2019-02-16T22:00:12.747Z,6.80
2019-02-16T22:02:47.618Z,6.80
2019-02-16T22:05:21.647Z,6.80
2019-02-16T22:07:55.138Z,6.70
2019-02-16T22:10:34.731Z,6.60
2019-02-16T22:13:05.721Z,6.60
2019-02-16T22:15:35.209Z,6.50
2019-02-16T22:18:04.742Z,6.50
2019-02-16T22:20:34.173Z,6.50
2019-02-16T22:23:03.660Z,6.60
2019-02-16T22:25:33.079Z,6.60
2019-02-16T22:28:02.630Z,6.50
2019-02-16T22:30:32.110Z,6.50
2019-02-16T22:33:01.572Z,6.60
2019-02-16T22:35:30.972Z,6.60
2019-02-16T22:38:00.399Z,6.60
2019-02-16T22:40:29.960Z,6.60
2019-02-16T22:42:59.387Z,6.60
2019-02-16T22:45:28.833Z,6.60
2019-02-16T22:47:58.468Z,6.50
2019-02-16T22:50:27.909Z,6.50
2019-02-16T22:52:57.344Z,6.50
2019-02-16T22:55:26.753Z,6.50
2019-02-16T22:57:56.192Z,6.50
2019-02-16T23:00:30.332Z,6.40
2019-02-16T23:02:59.918Z,6.40
2019-02-16T23:05:29.465Z,6.40
2019-02-16T23:07:58.872Z,6.30
2019-02-16T23:10:28.299Z,6.30
2019-02-16T23:12:57.747Z,6.30
2019-02-16T23:15:27.201Z,6.30
2019-02-16T23:17:56.634Z,6.30
2019-02-16T23:20:27.596Z,6.30
2019-02-16T23:22:57.046Z,6.30
2019-02-16T23:25:26.532Z,6.30
2019-02-16T23:27:55.970Z,6.30
2019-02-16T23:30:26.064Z,6.40
2019-02-16T23:32:57.064Z,6.30
2019-02-16T23:35:26.596Z,6.30
2019-02-16T23:37:56.045Z,6.30
2019-02-16T23:40:25.474Z,6.30
2019-02-16T23:42:54.910Z,6.20
2019-02-16T23:45:24.334Z,6.20
2019-02-16T23:47:53.776Z,6.20
2019-02-16T23:50:23.195Z,6.10
2019-02-16T23:52:52.661Z,6.10
2019-02-16T23:55:22.101Z,6.10
2019-02-16T23:57:51.508Z,6.10
